Time;durP1;ratioP1;P1;durP2;ratioP2;P2;SDS_P1;SDS_P2;PMS_P1;PMS_P2;Temp;Humidity;BMP_temperature;BMP_pressure;BME280_temperature;BME280_humidity;BME280_pressure;Samples;Min_cycle;Max_cycle;Signal;HPM_P1;HPM_P2
2021/09/21 00:01:27;;;;;;;4.20;3.80;;;;;;;;;;4955343;28;20264;-75
2021/09/21 00:03:52;;;;;;;4.70;3.53;;;;;;;;;;4953637;28;20211;-75
2021/09/21 00:06:17;;;;;;;3.70;3.40;;;;;;;;;;4948533;28;20194;-75
2021/09/21 00:08:43;;;;;;;3.67;3.37;;;;;;;;;;4951117;28;20193;-75
2021/09/21 00:11:09;;;;;;;3.20;2.93;;;;;;;;;;4947229;28;20316;-75
2021/09/21 00:13:34;;;;;;;4.70;3.83;;;;;;;;;;4949349;28;20582;-75
2021/09/21 00:16:00;;;;;;;3.83;3.43;;;;;;;;;;4952578;28;20330;-75
2021/09/21 00:18:25;;;;;;;6.60;2.97;;;;;;;;;;4955994;28;20174;-75
2021/09/21 00:20:51;;;;;;;4.47;3.80;;;;;;;;;;4956391;28;20178;-75
2021/09/21 00:23:16;;;;;;;5.27;3.40;;;;;;;;;;4954022;28;20203;-75
2021/09/21 00:25:41;;;;;;;4.10;3.70;;;;;;;;;;4957680;28;20187;-75
2021/09/21 00:28:07;;;;;;;3.80;2.87;;;;;;;;;;4953845;28;20216;-76
2021/09/21 00:30:32;;;;;;;7.33;3.17;;;;;;;;;;4956059;28;20206;-76
2021/09/21 00:33:05;;;;;;;3.47;3.17;;;;;;;;;;4953096;28;20306;-75
2021/09/21 00:35:31;;;;;;;3.73;3.40;;;;;;;;;;4954354;28;20581;-75
2021/09/21 00:37:56;;;;;;;3.53;3.30;;;;;;;;;;4954063;28;20460;-75
2021/09/21 00:40:22;;;;;;;4.53;3.50;;;;;;;;;;4958655;28;20942;-75
2021/09/21 00:42:47;;;;;;;3.30;3.00;;;;;;;;;;4953129;28;20246;-75
2021/09/21 00:45:17;;;;;;;3.57;3.27;;;;;;;;;;4953445;28;20183;-75
2021/09/21 00:47:42;;;;;;;3.93;3.27;;;;;;;;;;4955284;28;20216;-75
2021/09/21 00:50:08;;;;;;;3.03;2.77;;;;;;;;;;4957894;28;21198;-75
2021/09/21 00:52:33;;;;;;;3.63;3.23;;;;;;;;;;4951882;28;20210;-75
2021/09/21 00:54:58;;;;;;;3.10;2.80;;;;;;;;;;4952453;28;20190;-75
2021/09/21 00:57:24;;;;;;;3.47;3.17;;;;;;;;;;4956394;28;20207;-75
2021/09/21 00:59:49;;;;;;;4.60;4.20;;;;;;;;;;4957493;28;20303;-75
2021/09/21 01:02:14;;;;;;;3.97;3.10;;;;;;;;;;4953821;28;20265;-75
2021/09/21 01:04:39;;;;;;;3.43;3.13;;;;;;;;;;4959178;28;20175;-75
2021/09/21 01:07:05;;;;;;;4.00;3.17;;;;;;;;;;4952685;28;20221;-75
2021/09/21 01:09:30;;;;;;;5.70;3.30;;;;;;;;;;4952297;28;20182;-75
2021/09/21 01:11:56;;;;;;;2.83;2.60;;;;;;;;;;4954885;28;20218;-75
2021/09/21 01:14:22;;;;;;;3.43;3.13;;;;;;;;;;4955107;28;20187;-75
2021/09/21 01:16:48;;;;;;;3.50;3.30;;;;;;;;;;4955390;28;20501;-75
2021/09/21 01:19:13;;;;;;;3.77;3.47;;;;;;;;;;4955425;28;20291;-75
2021/09/21 01:21:40;;;;;;;4.60;4.00;;;;;;;;;;4950436;28;20260;-74
2021/09/21 01:24:05;;;;;;;5.00;4.60;;;;;;;;;;4948983;28;20474;-75
2021/09/21 01:26:30;;;;;;;4.80;4.40;;;;;;;;;;4956495;28;20437;-75
2021/09/21 01:28:56;;;;;;;4.80;4.40;;;;;;;;;;4957495;28;20341;-75
2021/09/21 01:31:21;;;;;;;5.30;4.63;;;;;;;;;;4957657;28;20202;-75
2021/09/21 01:33:47;;;;;;;4.87;4.10;;;;;;;;;;4958622;28;20208;-75
2021/09/21 01:36:16;;;;;;;5.30;4.80;;;;;;;;;;4956021;28;20209;-74
2021/09/21 01:38:41;;;;;;;5.30;4.80;;;;;;;;;;4960473;28;20441;-75
2021/09/21 01:41:06;;;;;;;8.37;5.30;;;;;;;;;;4962458;28;20438;-74
2021/09/21 01:43:32;;;;;;;5.50;4.83;;;;;;;;;;4955396;28;20793;-75
2021/09/21 01:45:57;;;;;;;7.07;4.57;;;;;;;;;;4960208;28;20197;-76
2021/09/21 01:48:22;;;;;;;5.20;4.63;;;;;;;;;;4955210;28;20721;-76
2021/09/21 01:50:59;;;;;;;5.63;4.90;;;;;;;;;;4960808;28;20175;-76
2021/09/21 01:58:52;;;;;;;4.70;4.30;;;;;;;;;;4957340;28;20855;-76
2021/09/21 02:01:19;;;;;;;4.27;3.87;;;;;;;;;;4956100;28;20461;-76
2021/09/21 02:03:45;;;;;;;4.17;3.80;;;;;;;;;;4959715;28;20768;-75
2021/09/21 02:06:10;;;;;;;5.30;4.20;;;;;;;;;;4958358;28;20833;-76
2021/09/21 02:08:36;;;;;;;4.23;3.83;;;;;;;;;;4959056;28;20191;-76
2021/09/21 02:11:02;;;;;;;3.63;3.30;;;;;;;;;;4959228;28;20179;-76
2021/09/21 02:13:27;;;;;;;6.70;4.17;;;;;;;;;;4958775;28;20407;-76
2021/09/21 02:15:52;;;;;;;4.07;3.77;;;;;;;;;;4955573;28;20873;-76
2021/09/21 02:18:17;;;;;;;4.10;3.50;;;;;;;;;;4955847;28;20174;-76
2021/09/21 02:20:43;;;;;;;3.77;3.47;;;;;;;;;;4960908;28;20175;-76
2021/09/21 02:23:08;;;;;;;4.20;3.80;;;;;;;;;;4956668;28;20195;-76
2021/09/21 02:25:33;;;;;;;4.30;3.90;;;;;;;;;;4959575;28;20187;-76
2021/09/21 02:27:59;;;;;;;4.10;3.70;;;;;;;;;;4958458;28;20191;-76
2021/09/21 02:30:24;;;;;;;4.27;3.23;;;;;;;;;;4954606;28;20190;-76
2021/09/21 02:32:49;;;;;;;4.43;3.80;;;;;;;;;;4952530;28;20210;-76
2021/09/21 02:35:15;;;;;;;4.67;4.00;;;;;;;;;;4961375;28;20229;-76
2021/09/21 02:37:41;;;;;;;4.10;3.80;;;;;;;;;;4959095;28;20238;-76
2021/09/21 02:40:08;;;;;;;4.80;3.87;;;;;;;;;;4955041;28;21071;-75
2021/09/21 02:42:33;;;;;;;3.80;3.50;;;;;;;;;;4953806;28;20227;-73
2021/09/21 02:44:58;;;;;;;7.87;3.80;;;;;;;;;;4954476;28;20425;-73
2021/09/21 02:47:24;;;;;;;6.40;4.00;;;;;;;;;;4955414;28;20281;-73
2021/09/21 02:49:49;;;;;;;5.00;4.20;;;;;;;;;;4960541;28;20534;-73
2021/09/21 02:52:14;;;;;;;5.27;4.73;;;;;;;;;;4958760;28;20206;-73
2021/09/21 02:54:39;;;;;;;5.33;4.63;;;;;;;;;;4956114;28;20186;-73
2021/09/21 02:57:05;;;;;;;4.47;3.53;;;;;;;;;;4959739;28;20298;-74
2021/09/21 02:59:30;;;;;;;4.60;3.70;;;;;;;;;;4957620;28;20183;-76
2021/09/21 03:01:55;;;;;;;5.20;4.70;;;;;;;;;;4951642;28;20175;-74
2021/09/21 03:04:47;;;;;;;5.00;4.20;;;;;;;;;;4955467;28;20202;-74
2021/09/21 03:07:12;;;;;;;5.97;4.17;;;;;;;;;;4950758;28;20195;-74
2021/09/21 03:09:52;;;;;;;5.17;4.37;;;;;;;;;;4952843;28;20477;-74
2021/09/21 03:17:51;;;;;;;5.53;3.80;;;;;;;;;;4957371;28;20437;-76
2021/09/21 03:20:16;;;;;;;4.43;3.53;;;;;;;;;;4957822;28;20533;-73
2021/09/21 03:22:41;;;;;;;4.43;4.03;;;;;;;;;;4948627;28;20931;-74
2021/09/21 03:25:09;;;;;;;4.20;3.30;;;;;;;;;;4958117;28;20225;-74
2021/09/21 03:27:34;;;;;;;4.00;3.13;;;;;;;;;;4952690;28;20197;-74
2021/09/21 03:29:59;;;;;;;4.73;4.20;;;;;;;;;;4964296;28;20944;-74
2021/09/21 03:32:25;;;;;;;8.50;4.70;;;;;;;;;;4951010;28;20212;-74
2021/09/21 03:34:51;;;;;;;5.33;4.20;;;;;;;;;;4956571;28;20269;-74
2021/09/21 03:37:16;;;;;;;4.33;3.93;;;;;;;;;;4955190;28;20552;-74
2021/09/21 03:39:41;;;;;;;5.50;4.23;;;;;;;;;;4957246;28;20190;-74
2021/09/21 03:42:06;;;;;;;5.17;4.40;;;;;;;;;;4954164;28;20186;-74
2021/09/21 03:44:32;;;;;;;6.57;4.70;;;;;;;;;;4951483;28;20200;-74
2021/09/21 03:46:57;;;;;;;4.33;3.47;;;;;;;;;;4954633;28;20229;-74
2021/09/21 03:49:23;;;;;;;5.47;4.20;;;;;;;;;;4952180;28;20558;-74
2021/09/21 03:51:48;;;;;;;6.53;4.40;;;;;;;;;;4953195;28;20198;-74
2021/09/21 03:54:14;;;;;;;5.87;4.50;;;;;;;;;;4953622;28;20190;-74
2021/09/21 03:56:39;;;;;;;4.60;3.53;;;;;;;;;;4947301;28;20206;-74
2021/09/21 03:59:06;;;;;;;4.00;3.60;;;;;;;;;;4950021;28;20253;-75
2021/09/21 04:01:31;;;;;;;5.10;4.07;;;;;;;;;;4953031;28;20198;-74
2021/09/21 04:03:57;;;;;;;4.73;3.93;;;;;;;;;;4950097;28;20512;-75
2021/09/21 04:06:22;;;;;;;4.33;3.93;;;;;;;;;;4955091;28;20210;-74
2021/09/21 04:08:47;;;;;;;4.90;4.03;;;;;;;;;;4947758;28;20221;-74
2021/09/21 04:11:13;;;;;;;3.83;3.43;;;;;;;;;;4955212;28;20659;-75
2021/09/21 04:13:38;;;;;;;4.43;3.70;;;;;;;;;;4947776;28;20221;-75
2021/09/21 04:16:03;;;;;;;4.37;3.97;;;;;;;;;;4956958;28;20664;-75
2021/09/21 04:18:29;;;;;;;4.40;4.00;;;;;;;;;;4954816;28;20182;-74
2021/09/21 04:20:54;;;;;;;7.80;3.67;;;;;;;;;;4955382;28;20183;-74
2021/09/21 04:23:19;;;;;;;4.00;3.57;;;;;;;;;;4956644;28;20196;-75
2021/09/21 04:25:44;;;;;;;4.47;3.80;;;;;;;;;;4959199;28;20183;-75
2021/09/21 04:28:10;;;;;;;3.30;3.00;;;;;;;;;;4950550;28;20673;-75
2021/09/21 04:30:35;;;;;;;3.53;2.97;;;;;;;;;;4957730;28;20222;-75
2021/09/21 04:33:01;;;;;;;3.60;3.00;;;;;;;;;;4949955;28;22945;-75
2021/09/21 04:35:26;;;;;;;3.17;2.87;;;;;;;;;;4952674;28;20197;-74
2021/09/21 04:37:51;;;;;;;3.40;3.10;;;;;;;;;;4953258;28;20186;-74
2021/09/21 04:40:16;;;;;;;8.30;3.33;;;;;;;;;;4953954;28;20543;-74
2021/09/21 04:42:42;;;;;;;4.97;2.90;;;;;;;;;;4947358;28;20229;-74
2021/09/21 04:45:07;;;;;;;2.97;2.67;;;;;;;;;;4947207;28;20194;-74
2021/09/21 04:47:33;;;;;;;3.80;2.90;;;;;;;;;;4951185;28;20179;-74
2021/09/21 04:49:58;;;;;;;2.80;2.57;;;;;;;;;;4958961;28;20628;-74
2021/09/21 04:52:23;;;;;;;3.40;2.47;;;;;;;;;;4948690;28;20205;-74
2021/09/21 04:54:48;;;;;;;3.87;3.10;;;;;;;;;;4952552;28;20201;-75
2021/09/21 04:57:14;;;;;;;3.00;2.80;;;;;;;;;;4952874;28;20301;-74
2021/09/21 04:59:39;;;;;;;3.10;2.80;;;;;;;;;;4955102;28;20210;-74
2021/09/21 05:02:04;;;;;;;4.53;3.20;;;;;;;;;;4955895;28;20183;-74
2021/09/21 05:04:30;;;;;;;4.33;3.10;;;;;;;;;;4953507;28;20210;-74
2021/09/21 05:06:55;;;;;;;3.10;2.77;;;;;;;;;;4961554;28;20301;-74
2021/09/21 05:09:20;;;;;;;3.77;3.20;;;;;;;;;;4959129;28;20185;-75
2021/09/21 05:11:46;;;;;;;3.97;3.30;;;;;;;;;;4959503;28;20674;-74
2021/09/21 05:14:12;;;;;;;3.33;2.93;;;;;;;;;;4964747;28;20229;-75
2021/09/21 05:16:37;;;;;;;3.00;2.70;;;;;;;;;;4954692;28;20507;-75
2021/09/21 05:19:03;;;;;;;3.80;3.20;;;;;;;;;;4954223;28;20988;-74
2021/09/21 05:21:28;;;;;;;3.67;3.30;;;;;;;;;;4949330;28;20534;-76
2021/09/21 05:23:54;;;;;;;4.63;3.40;;;;;;;;;;4954705;28;20209;-76
2021/09/21 05:26:19;;;;;;;8.60;3.50;;;;;;;;;;4960270;28;20194;-76
2021/09/21 05:28:45;;;;;;;4.27;3.57;;;;;;;;;;4952011;28;20653;-74
2021/09/21 05:31:10;;;;;;;7.80;3.50;;;;;;;;;;4956190;28;20186;-74
2021/09/21 05:33:35;;;;;;;5.90;4.20;;;;;;;;;;4956150;28;20214;-74
2021/09/21 05:36:00;;;;;;;3.60;3.30;;;;;;;;;;4966252;28;20687;-74
2021/09/21 05:38:26;;;;;;;3.33;3.03;;;;;;;;;;4959564;28;20191;-74
2021/09/21 05:40:52;;;;;;;4.50;3.73;;;;;;;;;;4954283;28;20222;-74
2021/09/21 05:43:17;;;;;;;4.40;3.33;;;;;;;;;;4956451;28;21178;-74
2021/09/21 05:45:42;;;;;;;4.77;3.40;;;;;;;;;;4955958;28;20662;-74
2021/09/21 05:48:07;;;;;;;3.70;3.13;;;;;;;;;;4961177;28;20191;-75
2021/09/21 05:50:33;;;;;;;3.50;3.17;;;;;;;;;;4958622;28;20251;-74
2021/09/21 05:52:58;;;;;;;4.73;3.90;;;;;;;;;;4955977;28;20198;-74
2021/09/21 05:55:23;;;;;;;4.93;3.60;;;;;;;;;;4952047;28;20225;-74
2021/09/21 05:57:48;;;;;;;3.93;3.27;;;;;;;;;;4956930;28;20734;-74
2021/09/21 06:00:16;;;;;;;4.80;3.77;;;;;;;;;;4954203;28;20659;-75
2021/09/21 06:02:41;;;;;;;3.90;3.37;;;;;;;;;;4957816;28;20217;-74
2021/09/21 06:05:06;;;;;;;4.10;3.50;;;;;;;;;;4957663;28;20580;-74
2021/09/21 06:07:32;;;;;;;6.00;3.87;;;;;;;;;;4954446;28;20191;-74
2021/09/21 06:09:57;;;;;;;3.40;2.97;;;;;;;;;;4954608;28;20198;-75
2021/09/21 06:12:22;;;;;;;4.47;4.07;;;;;;;;;;4954487;28;20214;-75
2021/09/21 06:14:47;;;;;;;6.73;4.30;;;;;;;;;;4973015;28;20186;-75
2021/09/21 06:17:13;;;;;;;4.40;3.50;;;;;;;;;;4949039;28;20308;-75
2021/09/21 06:19:38;;;;;;;6.07;3.80;;;;;;;;;;4955611;28;20171;-75
2021/09/21 06:22:03;;;;;;;6.80;4.07;;;;;;;;;;4959089;28;20179;-74
2021/09/21 06:24:28;;;;;;;5.07;4.20;;;;;;;;;;4957660;28;20180;-74
2021/09/21 06:26:54;;;;;;;6.43;4.00;;;;;;;;;;4956051;28;20183;-75
2021/09/21 06:29:19;;;;;;;5.50;3.77;;;;;;;;;;4956547;28;20170;-75
2021/09/21 06:31:44;;;;;;;8.77;3.90;;;;;;;;;;4961975;28;20294;-75
2021/09/21 06:34:09;;;;;;;3.73;3.43;;;;;;;;;;4959228;28;20203;-75
2021/09/21 06:36:35;;;;;;;4.57;4.17;;;;;;;;;;4958322;28;20294;-75
2021/09/21 06:39:00;;;;;;;5.10;4.00;;;;;;;;;;4960264;28;20654;-74
2021/09/21 06:41:26;;;;;;;5.60;3.67;;;;;;;;;;4956778;28;20559;-75
2021/09/21 06:43:51;;;;;;;7.37;3.83;;;;;;;;;;4958050;28;20297;-75
2021/09/21 06:46:16;;;;;;;4.60;4.13;;;;;;;;;;4956744;28;20654;-75
2021/09/21 06:48:41;;;;;;;4.73;3.07;;;;;;;;;;4952711;28;20179;-75
2021/09/21 06:51:07;;;;;;;6.60;3.80;;;;;;;;;;4952982;28;20225;-75
2021/09/21 06:53:33;;;;;;;7.80;3.97;;;;;;;;;;4951317;28;20206;-75
2021/09/21 06:55:58;;;;;;;5.70;3.90;;;;;;;;;;4952229;28;20281;-75
2021/09/21 06:58:23;;;;;;;6.43;3.83;;;;;;;;;;4952814;28;20812;-75
2021/09/21 07:00:49;;;;;;;3.67;3.33;;;;;;;;;;4950543;28;20182;-74
2021/09/21 07:03:14;;;;;;;4.47;3.67;;;;;;;;;;4954722;28;20206;-75
2021/09/21 07:05:39;;;;;;;6.20;3.50;;;;;;;;;;4960980;28;20183;-74
2021/09/21 07:08:05;;;;;;;3.80;3.40;;;;;;;;;;4950520;28;20179;-75
2021/09/21 07:10:30;;;;;;;4.87;3.50;;;;;;;;;;4958264;28;20187;-74
2021/09/21 07:12:55;;;;;;;3.63;3.30;;;;;;;;;;4953833;28;20227;-75
2021/09/21 07:15:24;;;;;;;4.27;3.20;;;;;;;;;;4961199;28;20183;-75
2021/09/21 07:17:52;;;;;;;4.23;3.53;;;;;;;;;;4958152;28;20279;-75
2021/09/21 07:20:18;;;;;;;8.30;3.80;;;;;;;;;;4956299;28;20442;-75
2021/09/21 07:22:43;;;;;;;4.53;4.07;;;;;;;;;;4946252;28;20443;-75
2021/09/21 07:25:09;;;;;;;6.17;3.30;;;;;;;;;;4940747;28;20206;-75
2021/09/21 07:27:34;;;;;;;6.00;3.67;;;;;;;;;;4945615;28;20175;-75
2021/09/21 07:30:00;;;;;;;5.80;3.10;;;;;;;;;;4954908;28;20182;-75
2021/09/21 07:32:25;;;;;;;3.50;3.00;;;;;;;;;;4959164;28;20199;-76
2021/09/21 07:34:51;;;;;;;5.50;3.70;;;;;;;;;;4956091;28;20730;-76
2021/09/21 07:37:16;;;;;;;5.80;2.67;;;;;;;;;;4960481;28;20205;-75
2021/09/21 07:39:41;;;;;;;3.97;2.70;;;;;;;;;;4960195;28;20438;-76
2021/09/21 07:42:07;;;;;;;4.80;2.83;;;;;;;;;;4958473;28;20206;-76
2021/09/21 07:44:32;;;;;;;3.40;2.70;;;;;;;;;;4953002;28;20554;-75
2021/09/21 07:46:58;;;;;;;7.13;3.13;;;;;;;;;;4950632;28;20186;-75
2021/09/21 07:49:24;;;;;;;2.80;2.60;;;;;;;;;;4956412;28;20197;-75
2021/09/21 07:51:49;;;;;;;4.83;2.50;;;;;;;;;;4953451;28;20194;-75
2021/09/21 07:54:14;;;;;;;2.90;2.70;;;;;;;;;;4954082;28;20435;-75
2021/09/21 07:56:40;;;;;;;4.10;3.37;;;;;;;;;;4957886;28;20226;-76
2021/09/21 07:59:05;;;;;;;5.40;3.60;;;;;;;;;;4952760;28;20195;-75
2021/09/21 08:01:31;;;;;;;4.20;3.20;;;;;;;;;;4958083;28;20179;-75
2021/09/21 08:03:57;;;;;;;3.97;3.47;;;;;;;;;;4952353;28;20196;-76
2021/09/21 08:06:25;;;;;;;4.60;3.60;;;;;;;;;;4956183;28;21106;-75
2021/09/21 08:08:50;;;;;;;7.60;3.13;;;;;;;;;;4953376;28;20257;-76
2021/09/21 08:11:15;;;;;;;4.10;3.07;;;;;;;;;;4952206;28;20525;-75
2021/09/21 08:13:41;;;;;;;4.43;3.30;;;;;;;;;;4955526;28;20709;-76
2021/09/21 08:16:06;;;;;;;8.53;3.90;;;;;;;;;;4954193;28;20218;-75
2021/09/21 08:18:31;;;;;;;3.47;2.93;;;;;;;;;;4954169;28;20179;-75
2021/09/21 08:20:57;;;;;;;3.50;3.10;;;;;;;;;;4953900;28;20262;-75
2021/09/21 08:23:22;;;;;;;3.50;3.20;;;;;;;;;;4954982;28;20211;-76
2021/09/21 08:25:47;;;;;;;6.63;3.30;;;;;;;;;;4957155;28;20638;-75
2021/09/21 08:28:12;;;;;;;3.57;3.27;;;;;;;;;;4954547;28;20189;-76
2021/09/21 08:30:38;;;;;;;3.70;3.30;;;;;;;;;;4957837;28;20837;-75
2021/09/21 08:33:03;;;;;;;4.03;3.33;;;;;;;;;;4954113;28;20618;-75
2021/09/21 08:35:28;;;;;;;4.37;3.70;;;;;;;;;;4955538;28;20529;-75
2021/09/21 08:37:54;;;;;;;3.63;2.80;;;;;;;;;;4957973;28;20651;-75
2021/09/21 08:40:19;;;;;;;4.50;3.50;;;;;;;;;;4953236;28;20182;-75
2021/09/21 08:42:44;;;;;;;3.40;2.77;;;;;;;;;;4957290;28;20223;-75
2021/09/21 08:45:10;;;;;;;3.20;2.90;;;;;;;;;;4951426;28;20237;-75
2021/09/21 08:47:36;;;;;;;4.73;3.70;;;;;;;;;;4956186;28;20264;-76
2021/09/21 08:50:03;;;;;;;4.97;3.63;;;;;;;;;;4956107;28;20186;-75
2021/09/21 08:52:29;;;;;;;3.63;3.07;;;;;;;;;;4955003;28;20203;-76
2021/09/21 08:54:54;;;;;;;3.20;2.90;;;;;;;;;;4958615;28;20445;-76
2021/09/21 08:57:20;;;;;;;3.50;2.50;;;;;;;;;;4953624;28;20198;-75
2021/09/21 08:59:51;;;;;;;3.03;2.80;;;;;;;;;;4959521;28;20187;-75
2021/09/21 09:02:17;;;;;;;4.00;3.33;;;;;;;;;;4953843;28;20202;-75
2021/09/21 09:04:54;;;;;;;5.50;3.10;;;;;;;;;;4955755;28;20440;-76
2021/09/21 09:07:19;;;;;;;3.23;2.57;;;;;;;;;;4953119;28;20195;-75
2021/09/21 09:09:44;;;;;;;4.87;3.20;;;;;;;;;;4953012;28;20443;-75
2021/09/21 09:12:09;;;;;;;8.20;3.47;;;;;;;;;;4957937;28;20214;-75
2021/09/21 09:14:37;;;;;;;7.87;3.20;;;;;;;;;;4955007;28;20285;-75
2021/09/21 09:17:06;;;;;;;3.93;3.00;;;;;;;;;;4950404;28;20199;-75
2021/09/21 09:19:33;;;;;;;5.00;3.17;;;;;;;;;;4955530;28;20525;-75
2021/09/21 09:22:11;;;;;;;3.47;3.07;;;;;;;;;;4960466;28;20426;-75
2021/09/21 09:24:45;;;;;;;8.07;3.47;;;;;;;;;;4942289;28;20429;-75
2021/09/21 09:27:11;;;;;;;4.90;3.30;;;;;;;;;;4953445;28;20450;-75
2021/09/21 09:29:36;;;;;;;4.57;3.43;;;;;;;;;;4954928;28;20437;-75
2021/09/21 09:32:01;;;;;;;4.47;3.43;;;;;;;;;;4954543;28;20201;-75
2021/09/21 09:34:27;;;;;;;3.23;2.30;;;;;;;;;;4954794;28;20172;-75
2021/09/21 09:36:53;;;;;;;4.97;3.47;;;;;;;;;;4957269;28;20532;-75
2021/09/21 09:39:20;;;;;;;4.53;3.13;;;;;;;;;;4954680;28;20222;-75
2021/09/21 09:41:45;;;;;;;4.83;3.30;;;;;;;;;;4955019;28;20505;-75
2021/09/21 09:44:12;;;;;;;6.17;3.30;;;;;;;;;;4952463;28;20951;-75
2021/09/21 09:46:44;;;;;;;2.90;2.60;;;;;;;;;;4951265;28;20450;-75
2021/09/21 09:49:10;;;;;;;5.67;4.37;;;;;;;;;;4968756;28;20457;-76
2021/09/21 09:51:42;;;;;;;9.13;3.70;;;;;;;;;;4955915;28;20430;-75
2021/09/21 09:54:08;;;;;;;6.33;3.30;;;;;;;;;;4959678;28;20203;-75
2021/09/21 09:56:33;;;;;;;3.97;3.57;;;;;;;;;;4955192;28;20472;-76
2021/09/21 09:58:58;;;;;;;4.63;3.03;;;;;;;;;;4960167;28;20211;-75
2021/09/21 10:01:24;;;;;;;8.33;3.47;;;;;;;;;;4960306;28;20186;-75
2021/09/21 10:03:49;;;;;;;7.00;3.50;;;;;;;;;;4958911;28;20199;-75
2021/09/21 10:06:15;;;;;;;4.70;3.10;;;;;;;;;;4954386;28;20616;-76
2021/09/21 10:08:40;;;;;;;3.90;3.23;;;;;;;;;;4953562;28;21117;-76
2021/09/21 10:11:06;;;;;;;3.57;3.27;;;;;;;;;;4960701;28;20221;-76
2021/09/21 10:13:31;;;;;;;4.93;3.63;;;;;;;;;;4962537;28;21173;-76
2021/09/21 10:15:57;;;;;;;7.10;3.83;;;;;;;;;;4960277;28;20570;-76
2021/09/21 10:18:22;;;;;;;5.70;4.20;;;;;;;;;;4961079;28;20177;-75
2021/09/21 10:20:58;;;;;;;7.83;3.83;;;;;;;;;;4962236;28;20187;-77
2021/09/21 10:23:30;;;;;;;5.43;4.43;;;;;;;;;;4962107;28;20206;-75
2021/09/21 10:25:55;;;;;;;4.83;3.93;;;;;;;;;;4960442;28;21144;-76
2021/09/21 10:28:20;;;;;;;5.83;3.73;;;;;;;;;;4954942;28;20434;-76
2021/09/21 10:30:52;;;;;;;4.70;4.20;;;;;;;;;;4958513;28;20645;-76
2021/09/21 10:33:19;;;;;;;5.90;4.10;;;;;;;;;;4960306;28;20290;-76
2021/09/21 10:35:45;;;;;;;4.27;3.83;;;;;;;;;;4966336;28;20888;-75
2021/09/21 10:38:11;;;;;;;5.00;4.13;;;;;;;;;;4961002;28;20469;-76
2021/09/21 10:40:41;;;;;;;4.40;4.00;;;;;;;;;;4959254;28;20430;-76
2021/09/21 10:43:25;;;;;;;6.30;4.40;;;;;;;;;;4960318;28;21005;-76
2021/09/21 10:45:52;;;;;;;5.13;3.50;;;;;;;;;;4957756;28;20452;-75
2021/09/21 10:48:19;;;;;;;6.10;4.13;;;;;;;;;;4961111;28;20422;-76
2021/09/21 10:50:52;;;;;;;7.23;4.07;;;;;;;;;;4958216;28;20515;-76
2021/09/21 10:53:20;;;;;;;7.03;4.03;;;;;;;;;;4959807;28;20457;-76
2021/09/21 10:55:46;;;;;;;7.57;5.20;;;;;;;;;;4956476;28;20422;-76
2021/09/21 10:58:18;;;;;;;6.50;4.60;;;;;;;;;;4957820;28;20818;-77
2021/09/21 11:00:44;;;;;;;5.97;5.30;;;;;;;;;;4957615;28;20233;-76
2021/09/21 11:03:12;;;;;;;7.90;5.17;;;;;;;;;;4959779;28;20974;-76
2021/09/21 11:05:37;;;;;;;5.00;4.50;;;;;;;;;;4959842;28;20691;-76
2021/09/21 11:08:03;;;;;;;6.40;4.80;;;;;;;;;;4960755;28;20441;-76
2021/09/21 11:10:30;;;;;;;7.17;5.70;;;;;;;;;;4956015;28;20221;-76
2021/09/21 11:12:55;;;;;;;7.73;5.60;;;;;;;;;;4961331;28;20510;-76
2021/09/21 11:15:22;;;;;;;7.87;5.13;;;;;;;;;;4955250;28;20911;-76
2021/09/21 11:17:47;;;;;;;6.63;5.13;;;;;;;;;;4956028;28;20210;-76
2021/09/21 11:20:12;;;;;;;7.00;5.00;;;;;;;;;;4949743;28;20447;-76
2021/09/21 11:22:38;;;;;;;7.60;5.17;;;;;;;;;;4956996;28;20203;-76
2021/09/21 11:25:07;;;;;;;7.83;4.53;;;;;;;;;;4951306;28;20183;-75
2021/09/21 11:27:37;;;;;;;4.97;4.40;;;;;;;;;;4955781;28;20183;-75
2021/09/21 11:30:05;;;;;;;5.10;4.60;;;;;;;;;;4961163;28;20485;-75
2021/09/21 11:32:30;;;;;;;5.40;4.83;;;;;;;;;;4953539;28;20461;-76
2021/09/21 11:34:57;;;;;;;7.23;5.30;;;;;;;;;;4960724;28;20499;-76
2021/09/21 11:37:23;;;;;;;7.17;5.37;;;;;;;;;;4961454;28;20238;-77
2021/09/21 11:39:48;;;;;;;6.77;5.23;;;;;;;;;;4956677;28;20465;-76
2021/09/21 11:42:19;;;;;;;5.90;5.30;;;;;;;;;;4955461;28;20210;-76
2021/09/21 11:44:45;;;;;;;8.30;6.17;;;;;;;;;;4960264;28;20647;-76
2021/09/21 11:47:10;;;;;;;6.77;4.90;;;;;;;;;;4956719;28;20434;-75
2021/09/21 11:49:35;;;;;;;7.30;5.10;;;;;;;;;;4951405;28;20194;-76
2021/09/21 11:52:02;;;;;;;9.40;5.70;;;;;;;;;;4942709;28;20175;-75
2021/09/21 11:54:30;;;;;;;5.80;4.97;;;;;;;;;;4946358;28;20648;-76
2021/09/21 11:56:57;;;;;;;6.60;5.80;;;;;;;;;;4949664;28;20457;-76
2021/09/21 11:59:22;;;;;;;7.20;4.80;;;;;;;;;;4956032;28;20462;-76
2021/09/21 12:01:51;;;;;;;5.60;4.63;;;;;;;;;;4955687;28;20518;-76
2021/09/21 12:04:17;;;;;;;6.20;4.50;;;;;;;;;;4953694;28;20194;-75
2021/09/21 12:06:44;;;;;;;13.27;5.97;;;;;;;;;;4957873;28;20949;-76
2021/09/21 12:09:09;;;;;;;7.97;6.00;;;;;;;;;;4959075;28;20449;-76
2021/09/21 12:11:36;;;;;;;7.10;5.10;;;;;;;;;;4956853;28;20431;-76
2021/09/21 12:14:02;;;;;;;6.20;4.20;;;;;;;;;;4954371;28;20233;-76
2021/09/21 12:16:28;;;;;;;6.57;5.97;;;;;;;;;;4950001;28;20520;-76
2021/09/21 12:18:53;;;;;;;7.87;5.43;;;;;;;;;;4957545;28;20843;-76
2021/09/21 12:21:19;;;;;;;7.90;5.40;;;;;;;;;;4958359;28;20179;-77
2021/09/21 12:23:46;;;;;;;8.03;5.37;;;;;;;;;;4960239;28;20203;-77
2021/09/21 12:26:12;;;;;;;6.87;5.17;;;;;;;;;;4955137;28;20274;-76
2021/09/21 12:28:38;;;;;;;5.50;4.90;;;;;;;;;;4954784;28;20442;-76
2021/09/21 12:31:15;;;;;;;5.20;4.70;;;;;;;;;;4955337;28;20450;-77
2021/09/21 12:33:42;;;;;;;7.40;5.30;;;;;;;;;;4955096;28;20644;-77
2021/09/21 12:36:19;;;;;;;7.60;5.43;;;;;;;;;;4956136;28;20548;-76
2021/09/21 12:38:54;;;;;;;8.40;5.67;;;;;;;;;;4956938;28;20805;-77
2021/09/21 12:41:19;;;;;;;6.23;5.40;;;;;;;;;;4957906;28;20462;-77
2021/09/21 12:43:45;;;;;;;6.30;4.63;;;;;;;;;;4955537;28;20900;-77
2021/09/21 12:46:11;;;;;;;4.80;4.30;;;;;;;;;;4961772;28;20190;-77
2021/09/21 12:48:38;;;;;;;4.63;4.23;;;;;;;;;;4956514;28;20648;-77
2021/09/21 12:51:07;;;;;;;7.77;5.27;;;;;;;;;;4955518;28;20282;-76
2021/09/21 12:53:33;;;;;;;7.27;4.80;;;;;;;;;;4958436;28;20454;-76
2021/09/21 12:56:08;;;;;;;6.30;4.83;;;;;;;;;;4957218;28;20497;-76
2021/09/21 12:58:39;;;;;;;6.67;5.33;;;;;;;;;;4960470;28;21018;-75
2021/09/21 13:01:08;;;;;;;8.43;5.40;;;;;;;;;;4958015;28;20518;-76
2021/09/21 13:03:35;;;;;;;5.00;4.40;;;;;;;;;;4954985;28;20851;-77
2021/09/21 13:06:00;;;;;;;5.77;4.93;;;;;;;;;;4955723;28;20457;-76
2021/09/21 13:08:26;;;;;;;7.27;5.43;;;;;;;;;;4955636;28;20469;-76
2021/09/21 13:10:51;;;;;;;8.50;6.00;;;;;;;;;;4957923;28;20180;-77
2021/09/21 13:13:17;;;;;;;9.53;5.10;;;;;;;;;;4954857;28;20266;-76
2021/09/21 13:15:43;;;;;;;6.87;6.13;;;;;;;;;;4957042;28;20670;-77
2021/09/21 13:18:08;;;;;;;7.17;6.30;;;;;;;;;;4957082;28;20202;-77
2021/09/21 13:20:34;;;;;;;8.13;7.10;;;;;;;;;;4954759;28;20458;-76
2021/09/21 13:23:00;;;;;;;7.27;6.37;;;;;;;;;;4961759;28;20224;-77
2021/09/21 13:25:25;;;;;;;7.10;6.40;;;;;;;;;;4953051;28;20194;-76
2021/09/21 13:27:51;;;;;;;6.67;6.03;;;;;;;;;;4953911;28;20180;-76
2021/09/21 13:30:17;;;;;;;8.23;6.20;;;;;;;;;;4958394;28;20184;-76
2021/09/21 13:32:42;;;;;;;6.63;5.70;;;;;;;;;;4952947;28;20516;-77
2021/09/21 13:35:09;;;;;;;7.13;6.27;;;;;;;;;;4956457;28;20464;-76
2021/09/21 13:37:34;;;;;;;8.87;6.33;;;;;;;;;;4959081;28;20217;-77
2021/09/21 13:39:59;;;;;;;7.20;6.50;;;;;;;;;;4957861;28;20425;-76
2021/09/21 13:42:25;;;;;;;7.43;6.70;;;;;;;;;;4959829;28;20225;-76
2021/09/21 13:44:50;;;;;;;8.87;6.70;;;;;;;;;;4962968;28;20181;-76
2021/09/21 13:47:15;;;;;;;9.93;7.23;;;;;;;;;;4962479;28;20822;-76
2021/09/21 13:49:40;;;;;;;7.80;6.30;;;;;;;;;;4958547;28;20179;-76
2021/09/21 13:52:09;;;;;;;8.37;7.43;;;;;;;;;;4958680;28;20237;-77
2021/09/21 13:54:34;;;;;;;8.50;7.03;;;;;;;;;;4957708;28;20281;-75
2021/09/21 13:56:59;;;;;;;10.03;7.33;;;;;;;;;;4955955;28;20966;-76
2021/09/21 13:59:24;;;;;;;7.63;6.80;;;;;;;;;;4959082;28;20182;-77
2021/09/21 14:01:50;;;;;;;9.43;6.80;;;;;;;;;;4958737;28;20182;-76
2021/09/21 14:04:15;;;;;;;9.20;6.83;;;;;;;;;;4965922;28;20296;-77
2021/09/21 14:06:40;;;;;;;9.20;7.97;;;;;;;;;;4958763;28;20254;-76
2021/09/21 14:09:05;;;;;;;9.53;7.67;;;;;;;;;;4950125;28;20249;-76
2021/09/21 14:11:31;;;;;;;8.73;7.83;;;;;;;;;;4957647;28;20179;-76
2021/09/21 14:13:56;;;;;;;8.30;7.17;;;;;;;;;;4952971;28;20597;-76
2021/09/21 14:16:21;;;;;;;8.17;7.33;;;;;;;;;;4955623;28;20203;-76
2021/09/21 14:18:49;;;;;;;8.50;7.30;;;;;;;;;;4958662;28;20647;-76
2021/09/21 14:21:15;;;;;;;9.97;7.80;;;;;;;;;;4950006;28;20183;-76
2021/09/21 14:23:40;;;;;;;9.77;8.43;;;;;;;;;;4954189;28;20455;-75
2021/09/21 14:26:05;;;;;;;8.70;7.83;;;;;;;;;;4955156;28;20570;-76
2021/09/21 14:28:31;;;;;;;15.53;8.97;;;;;;;;;;4961339;28;20270;-76
2021/09/21 14:30:56;;;;;;;12.10;8.13;;;;;;;;;;4951079;28;20281;-76
2021/09/21 14:33:21;;;;;;;15.80;8.77;;;;;;;;;;4948253;28;20306;-76
2021/09/21 14:35:49;;;;;;;9.53;8.03;;;;;;;;;;4952448;28;20310;-76
2021/09/21 14:38:15;;;;;;;9.20;8.20;;;;;;;;;;4953713;28;20197;-76
2021/09/21 14:40:40;;;;;;;8.93;7.80;;;;;;;;;;4960338;28;20437;-76
2021/09/21 14:43:05;;;;;;;9.00;7.40;;;;;;;;;;4960708;28;20226;-76
2021/09/21 14:45:33;;;;;;;8.60;7.80;;;;;;;;;;4963586;28;20261;-76
2021/09/21 14:47:58;;;;;;;13.40;9.27;;;;;;;;;;4955395;28;20262;-76